Time;durP1;ratioP1;P1;durP2;ratioP2;P2;SDS_P1;SDS_P2;PMS_P1;PMS_P2;Temp;Humidity;BMP_temperature;BMP_pressure;BME280_temperature;BME280_humidity;BME280_pressure;Samples;Min_cycle;Max_cycle;Signal;HPM_P1;HPM_P2
2021/11/08 00:02:12;;;;;;;7.77;5.70;;;6.90;86.40;;;5.33;90.97;98211.66;5050910;28;20449;-71
2021/11/08 00:04:39;;;;;;;8.20;6.20;;;6.80;87.10;;;5.33;90.53;98216.19;5051445;28;20445;-71
2021/11/08 00:07:06;;;;;;;13.93;6.40;;;6.70;87.20;;;5.31;91.30;98216.38;5052799;28;20510;-71
2021/11/08 00:09:34;;;;;;;8.40;6.00;;;6.70;88.20;;;5.29;91.44;98221.06;5069922;28;20556;-70
2021/11/08 00:12:01;;;;;;;12.53;6.40;;;6.70;88.30;;;5.30;91.52;98232.59;5077345;28;20540;-71
2021/11/08 00:14:28;;;;;;;9.10;6.03;;;6.60;89.00;;;5.14;91.97;98217.47;5068864;28;20496;-71
2021/11/08 00:17:04;;;;;;;8.57;5.50;;;6.60;88.60;;;5.33;91.52;98225.06;5057773;28;20458;-71
2021/11/08 00:19:50;;;;;;;11.80;6.70;;;6.60;88.60;;;5.22;91.87;98222.78;5069119;28;20452;-72
2021/11/08 00:22:17;;;;;;;17.90;6.57;;;6.60;88.20;;;5.12;91.36;98222.19;5067511;28;20583;-72
2021/11/08 00:24:48;;;;;;;11.07;6.20;;;6.50;88.70;;;5.25;91.04;98231.28;5071183;28;20554;-69
2021/11/08 00:27:16;;;;;;;11.20;6.83;;;6.60;88.90;;;4.70;92.54;98176.84;5068504;28;21220;-71
2021/11/08 00:29:43;;;;;;;10.93;5.97;;;6.40;89.10;;;4.91;93.12;98232.47;5066881;28;20496;-70
2021/11/08 00:32:10;;;;;;;8.80;6.03;;;6.30;90.00;;;4.88;92.87;98222.13;5069502;28;20555;-71
2021/11/08 00:34:39;;;;;;;6.10;5.13;;;6.20;90.40;;;4.77;92.82;98239.38;5073911;28;20493;-72
2021/11/08 00:37:06;;;;;;;7.07;6.27;;;6.10;90.50;;;4.62;93.98;98243.75;5054674;28;20457;-71
2021/11/08 00:39:34;;;;;;;11.83;6.10;;;6.00;91.20;;;4.64;95.18;98249.81;5075529;28;20547;-70
2021/11/08 00:42:01;;;;;;;13.23;7.40;;;6.00;91.90;;;4.82;94.09;98246.88;5084964;28;20452;-71
2021/11/08 00:44:29;;;;;;;10.73;5.70;;;6.10;91.70;;;4.76;93.30;98244.91;5072923;28;20524;-70
2021/11/08 00:46:57;;;;;;;8.83;6.00;;;6.10;91.30;;;4.71;93.39;98253.44;5084121;28;20463;-70
2021/11/08 00:49:26;;;;;;;11.23;5.93;;;6.00;91.20;;;4.53;94.33;98254.50;5075632;28;20465;-70
2021/11/08 00:51:55;;;;;;;15.17;6.13;;;5.90;91.50;;;4.49;95.47;98266.56;5068612;28;20458;-70
2021/11/08 00:54:23;;;;;;;11.50;5.80;;;5.80;92.50;;;4.57;94.79;98265.72;5060508;28;20481;-70
2021/11/08 00:56:53;;;;;;;12.47;5.90;;;5.90;92.70;;;4.57;95.40;98267.53;5080401;28;20456;-70
2021/11/08 00:59:20;;;;;;;13.90;6.47;;;5.90;92.60;;;4.56;94.89;98265.88;5061654;28;20455;-70
2021/11/08 01:01:52;;;;;;;7.17;5.80;;;5.90;92.50;;;4.53;94.61;98265.22;5075403;28;20502;-71
2021/11/08 01:04:21;;;;;;;9.83;6.20;;;5.90;92.50;;;4.60;95.14;98269.88;5077296;28;20510;-70
2021/11/08 01:06:48;;;;;;;13.90;7.20;;;5.90;92.70;;;4.70;95.25;98269.66;5077848;28;20488;-71
2021/11/08 01:09:18;;;;;;;7.47;6.00;;;6.00;92.70;;;4.91;93.27;98277.16;5077065;28;20489;-71
2021/11/08 01:11:46;;;;;;;10.13;6.47;;;6.20;92.00;;;5.15;92.06;98281.56;5075239;28;20987;-70
2021/11/08 01:14:13;;;;;;;9.40;5.50;;;6.30;90.90;;;5.04;92.09;98281.97;5078542;28;20573;-71
2021/11/08 01:16:40;;;;;;;8.27;5.97;;;6.40;90.20;;;5.20;91.21;98275.69;5086342;28;20485;-71
2021/11/08 01:19:08;;;;;;;12.73;5.73;;;6.50;89.70;;;5.22;91.20;98292.41;5077349;28;20888;-70
2021/11/08 01:21:36;;;;;;;13.10;5.73;;;6.50;89.10;;;5.38;89.95;98292.38;5078333;28;20519;-71
2021/11/08 01:24:04;;;;;;;8.70;5.00;;;6.60;87.70;;;5.38;89.56;98278.13;5074674;28;20453;-71
2021/11/08 01:26:33;;;;;;;9.43;5.70;;;6.70;87.40;;;5.57;89.42;98286.72;5056526;28;20441;-71
2021/11/08 01:29:01;;;;;;;7.00;5.23;;;6.80;86.50;;;5.43;89.31;98286.47;5077893;28;20503;-70
2021/11/08 01:31:29;;;;;;;10.20;4.90;;;6.80;86.00;;;5.48;89.06;98296.66;5078741;28;20484;-70
2021/11/08 01:33:56;;;;;;;12.20;6.23;;;6.80;86.50;;;5.60;89.23;98291.72;5062643;28;20727;-70
2021/11/08 01:36:25;;;;;;;11.57;6.53;;;6.80;86.20;;;5.47;89.34;98293.16;5076164;28;20445;-71
2021/11/08 01:39:00;;;;;;;8.37;5.20;;;6.80;86.10;;;5.46;88.99;98296.00;5069762;28;20524;-71
2021/11/08 01:41:28;;;;;;;7.33;4.70;;;6.80;85.90;;;5.49;89.02;98298.31;5075072;28;20457;-70
2021/11/08 01:43:56;;;;;;;14.77;5.30;;;6.80;86.00;;;5.41;88.98;98293.84;5075915;28;20871;-70
2021/11/08 01:46:24;;;;;;;10.20;5.53;;;6.70;85.60;;;5.50;89.02;98300.00;5082488;28;20481;-70
2021/11/08 01:48:52;;;;;;;8.53;5.40;;;6.80;85.50;;;5.38;88.83;98289.69;5069660;28;20444;-71
2021/11/08 01:51:19;;;;;;;8.10;5.43;;;6.70;85.60;;;5.41;89.27;98301.88;5075238;28;20461;-71
2021/11/08 01:53:48;;;;;;;9.33;5.00;;;6.70;85.90;;;5.20;89.99;98307.84;5076035;28;20611;-70
2021/11/08 01:56:15;;;;;;;8.73;5.77;;;6.60;85.80;;;5.00;90.39;98304.72;5063629;28;20442;-70
2021/11/08 01:58:42;;;;;;;10.30;6.17;;;6.40;86.70;;;4.80;92.15;98300.63;5080731;28;20457;-70
2021/11/08 02:01:12;;;;;;;10.50;5.20;;;6.20;88.50;;;4.75;92.16;98304.81;5062707;28;20552;-70
2021/11/08 02:03:39;;;;;;;8.73;5.87;;;6.10;90.10;;;4.71;92.83;98309.66;5064301;28;20478;-70
2021/11/08 02:06:06;;;;;;;6.63;5.80;;;6.10;90.10;;;4.65;92.83;98311.19;5083913;28;20683;-70
2021/11/08 02:08:37;;;;;;;8.83;5.70;;;6.00;90.50;;;4.64;93.15;98314.03;5083009;28;20487;-70
2021/11/08 02:11:04;;;;;;;11.10;6.27;;;5.90;90.60;;;4.48;93.01;98313.06;5080610;28;20464;-70
2021/11/08 02:13:31;;;;;;;8.53;5.33;;;5.80;90.40;;;4.33;94.59;98322.78;5069680;28;20477;-70
2021/11/08 02:15:58;;;;;;;10.77;5.20;;;5.70;91.30;;;4.37;94.17;98329.44;5052937;28;20461;-69
2021/11/08 02:18:26;;;;;;;13.87;7.07;;;5.70;91.70;;;4.13;95.73;98319.59;5053812;28;20446;-69
2021/11/08 02:20:55;;;;;;;7.23;6.03;;;5.50;92.20;;;4.05;95.57;98312.41;5075708;28;20465;-71
2021/11/08 02:23:25;;;;;;;8.23;6.77;;;5.50;92.80;;;4.15;95.46;98330.94;5063814;28;20513;-69
2021/11/08 02:25:54;;;;;;;14.90;7.50;;;5.50;92.90;;;4.08;95.28;98326.25;5076846;28;20469;-70
2021/11/08 02:28:22;;;;;;;10.23;6.80;;;5.40;93.00;;;3.96;95.78;98333.78;5080778;28;20490;-70
2021/11/08 02:30:53;;;;;;;12.00;6.70;;;5.30;93.30;;;3.90;96.31;98338.94;5066014;28;20502;-71
2021/11/08 02:33:21;;;;;;;10.97;6.60;;;5.20;94.10;;;3.90;96.06;98336.25;5085077;28;20455;-71
2021/11/08 02:35:48;;;;;;;10.27;7.17;;;5.20;94.40;;;3.75;96.84;98328.06;5074585;28;20473;-70
2021/11/08 02:38:20;;;;;;;13.77;8.00;;;5.20;94.80;;;3.74;98.22;98335.22;5071408;28;20489;-70
2021/11/08 02:40:48;;;;;;;10.87;7.10;;;5.10;95.70;;;3.73;97.35;98332.75;5076787;28;20495;-70
2021/11/08 02:43:20;;;;;;;11.80;6.40;;;5.10;95.20;;;3.68;97.49;98331.38;5078011;28;20491;-70
2021/11/08 02:45:51;;;;;;;14.40;7.00;;;5.00;96.10;;;3.86;97.21;98332.25;5061084;28;20467;-71
2021/11/08 02:48:18;;;;;;;13.93;7.27;;;5.10;97.10;;;3.70;97.54;98336.56;5079521;28;20675;-70
2021/11/08 02:50:52;;;;;;;18.43;6.50;;;5.10;95.90;;;3.68;97.54;98339.38;5054921;28;20532;-71
2021/11/08 02:53:23;;;;;;;16.50;8.03;;;5.10;96.10;;;3.56;98.41;98343.38;5053601;28;21142;-70
2021/11/08 02:55:51;;;;;;;15.33;7.27;;;5.00;96.30;;;3.46;99.05;98348.03;5064520;28;20457;-70
2021/11/08 02:58:19;;;;;;;14.93;8.10;;;4.90;97.20;;;3.53;98.98;98343.69;5062675;28;20461;-70
2021/11/08 03:00:47;;;;;;;13.57;7.90;;;4.90;98.30;;;3.47;99.20;98344.34;5074397;28;20449;-70
2021/11/08 03:03:14;;;;;;;14.60;8.50;;;4.80;98.30;;;3.61;98.68;98346.41;5069174;28;20448;-70
2021/11/08 03:05:42;;;;;;;10.70;7.73;;;4.90;98.40;;;3.42;98.65;98336.81;5071459;28;20469;-70
2021/11/08 03:08:09;;;;;;;14.07;8.03;;;4.90;96.70;;;3.54;98.55;98346.22;5056983;28;20468;-70
2021/11/08 03:10:41;;;;;;;13.83;8.30;;;4.90;97.80;;;3.47;98.56;98345.16;5061465;28;20461;-70
2021/11/08 03:13:14;;;;;;;17.33;8.20;;;4.90;96.70;;;3.46;98.43;98334.66;5055245;28;20503;-70
2021/11/08 03:15:57;;;;;;;16.07;8.67;;;4.80;97.40;;;3.39;98.51;98347.84;5054589;28;20477;-70
2021/11/08 03:18:30;;;;;;;20.57;8.63;;;4.80;97.20;;;3.30;100.00;98344.28;5074233;28;20457;-70
2021/11/08 03:20:58;;;;;;;15.93;8.70;;;4.70;99.10;;;3.21;100.00;98351.44;5052999;28;20445;-70
2021/11/08 03:23:27;;;;;;;17.50;8.57;;;4.70;98.90;;;3.11;100.00;98356.91;5063464;28;20458;-70
2021/11/08 03:26:04;;;;;;;15.77;8.83;;;4.50;99.90;;;3.28;100.00;98356.13;5065597;28;20464;-70
2021/11/08 03:28:31;;;;;;;19.07;8.33;;;4.60;99.90;;;3.36;100.00;98359.66;5068186;28;20440;-70
2021/11/08 03:30:59;;;;;;;18.00;9.03;;;4.70;99.90;;;3.58;100.00;98359.25;5067706;28;20464;-70
2021/11/08 03:33:27;;;;;;;17.70;8.60;;;4.90;99.90;;;3.65;99.79;98363.78;5065680;28;20516;-70
2021/11/08 03:35:57;;;;;;;13.40;9.40;;;5.00;99.90;;;3.78;100.00;98357.13;5064990;28;20496;-70
2021/11/08 03:38:24;;;;;;;17.53;8.97;;;5.10;99.90;;;3.84;98.78;98356.47;5070839;28;20534;-70
2021/11/08 03:40:50;;;;;;;19.00;9.00;;;5.20;98.80;;;3.91;98.32;98356.66;5053209;28;20536;-70
2021/11/08 03:43:21;;;;;;;15.03;7.70;;;5.30;97.40;;;3.96;98.01;98359.69;5075051;28;20496;-69
2021/11/08 03:45:50;;;;;;;17.93;8.57;;;5.30;96.10;;;3.97;98.36;98362.19;5068520;28;20464;-69
2021/11/08 03:48:19;;;;;;;20.63;8.63;;;5.40;95.60;;;4.21;96.71;98357.88;5049043;28;20561;-70
2021/11/08 03:50:48;;;;;;;14.53;8.00;;;5.50;94.60;;;4.28;96.00;98357.19;5056816;28;20456;-70
2021/11/08 03:53:16;;;;;;;15.13;7.73;;;5.60;93.60;;;4.17;96.65;98356.53;5069101;28;20465;-70
2021/11/08 03:55:45;;;;;;;11.60;7.17;;;5.60;93.40;;;4.25;95.75;98359.19;5062529;28;20572;-70
2021/11/08 03:58:13;;;;;;;9.43;7.40;;;5.60;92.90;;;4.16;95.95;98357.50;5048434;28;20619;-70
2021/11/08 04:00:41;;;;;;;11.53;7.87;;;5.60;92.90;;;4.18;95.51;98362.72;5062047;28;20543;-70
2021/11/08 04:03:10;;;;;;;11.83;7.80;;;5.60;93.00;;;4.17;95.83;98363.72;5066452;28;20488;-69
2021/11/08 04:05:41;;;;;;;10.83;7.70;;;5.60;92.70;;;4.21;95.88;98371.25;5059905;28;20556;-69
2021/11/08 04:08:13;;;;;;;13.67;8.00;;;5.50;92.90;;;4.15;94.71;98371.88;5066354;28;20552;-69
2021/11/08 04:10:42;;;;;;;11.03;8.47;;;5.60;92.00;;;4.19;95.48;98367.91;5048782;28;20640;-69
2021/11/08 04:13:10;;;;;;;14.10;8.90;;;5.60;92.80;;;4.19;95.08;98367.91;5068280;28;20543;-70
2021/11/08 04:15:42;;;;;;;12.00;8.37;;;5.60;92.20;;;4.20;95.19;98376.75;5067423;28;20560;-70
2021/11/08 04:18:14;;;;;;;13.80;8.07;;;5.60;92.20;;;4.21;94.63;98376.59;5049722;28;20503;-70
2021/11/08 04:20:43;;;;;;;13.03;8.47;;;5.60;91.90;;;4.21;94.95;98373.91;5067885;28;20445;-70
2021/11/08 04:23:13;;;;;;;18.27;7.40;;;5.60;92.00;;;4.13;95.09;98381.09;5072310;28;20453;-69
2021/11/08 04:25:41;;;;;;;16.40;8.70;;;5.60;92.00;;;4.19;95.20;98381.28;5045807;28;20576;-69
2021/11/08 04:28:09;;;;;;;15.40;7.80;;;5.60;91.80;;;4.20;94.33;98372.25;5069899;28;20477;-69
2021/11/08 04:30:41;;;;;;;19.37;9.10;;;5.60;91.80;;;4.23;95.07;98379.09;5049538;28;20461;-70
2021/11/08 04:36:06;;;;;;;17.20;8.67;;;5.60;91.40;;;4.25;94.64;98379.78;5065929;28;20485;-70
2021/11/08 04:38:41;;;;;;;15.63;7.90;;;5.70;91.70;;;4.18;94.81;98381.44;5075912;28;20495;-70
2021/11/08 04:41:18;;;;;;;14.47;8.63;;;5.60;91.60;;;4.34;94.20;98388.66;5063052;28;20519;-70
2021/11/08 04:43:54;;;;;;;15.43;8.77;;;5.70;91.40;;;4.41;93.00;98386.16;5073164;28;20456;-69
2021/11/08 04:46:52;;;;;;;17.23;8.80;;;5.70;91.00;;;4.22;94.13;98380.94;5055169;28;20470;-70
2021/11/08 04:49:26;;;;;;;15.97;8.60;;;5.60;91.00;;;4.28;93.22;98373.25;5070398;28;21060;-69
2021/11/08 04:52:01;;;;;;;17.37;8.40;;;5.70;91.10;;;4.19;93.96;98386.63;5058802;28;20526;-69
2021/11/08 04:54:36;;;;;;;16.10;9.07;;;5.60;90.90;;;4.20;94.06;98380.28;5065192;28;20793;-69
2021/11/08 05:24:56;;;;;;;15.13;9.07;;;5.70;90.40;;;4.25;92.91;98407.34;5050245;28;20465;-70
2021/11/08 05:30:11;;;;;;;15.50;9.07;;;5.70;90.70;;;4.15;93.47;98416.53;5071968;28;20445;-69
2021/11/08 05:32:41;;;;;;;17.40;9.90;;;5.60;90.80;;;4.06;93.81;98410.34;5051039;28;20585;-70
2021/11/08 05:35:11;;;;;;;18.27;9.93;;;5.60;91.00;;;4.25;93.55;98412.69;5065959;28;20556;-71
2021/11/08 05:37:43;;;;;;;17.00;9.53;;;5.70;90.80;;;4.21;93.85;98416.72;5070683;28;20457;-70
2021/11/08 05:40:13;;;;;;;15.70;8.97;;;5.60;90.80;;;4.33;92.82;98419.09;5056265;28;20456;-70
2021/11/08 05:42:40;;;;;;;17.03;9.30;;;5.70;90.60;;;4.41;93.19;98419.06;5073290;28;20521;-71
2021/11/08 05:45:10;;;;;;;14.07;8.90;;;5.70;91.10;;;4.39;92.98;98418.41;5078419;28;20481;-72
2021/11/08 05:47:38;;;;;;;20.43;10.00;;;5.70;90.60;;;4.30;92.24;98408.69;5069866;28;20452;-70
2021/11/08 05:50:07;;;;;;;13.07;9.50;;;5.80;90.50;;;4.32;92.86;98428.94;5076482;28;20527;-70
2021/11/08 05:52:34;;;;;;;16.03;9.60;;;5.70;90.40;;;4.36;92.61;98418.75;5060455;28;20504;-71
2021/11/08 05:55:04;;;;;;;17.90;8.67;;;5.70;90.60;;;4.46;92.96;98430.09;5075385;28;20464;-71
2021/11/08 06:50:08;;;;;;;18.67;10.93;;;6.00;88.80;;;4.79;91.63;98490.88;5067822;28;20461;-70
2021/11/08 06:52:35;;;;;;;21.80;11.50;;;6.10;88.90;;;5.04;89.65;98501.59;5054499;28;20481;-70
2021/11/08 06:55:06;;;;;;;17.40;9.97;;;6.30;87.10;;;5.04;89.51;98502.41;5065253;28;20501;-71
2021/11/08 06:57:43;;;;;;;17.50;9.70;;;6.40;86.20;;;5.25;88.61;98496.53;5060705;28;20508;-71
2021/11/08 07:00:15;;;;;;;18.40;11.17;;;6.50;85.60;;;5.25;87.91;98498.41;5067538;28;20465;-71
2021/11/08 07:02:42;;;;;;;20.53;10.17;;;6.60;84.30;;;5.30;87.60;98498.72;5052694;28;20458;-70
2021/11/08 07:05:10;;;;;;;15.67;9.50;;;6.60;84.00;;;5.14;88.58;98509.44;5065806;28;20544;-71
2021/11/08 07:07:37;;;;;;;15.30;9.70;;;6.60;83.60;;;5.00;88.90;98506.44;5076395;28;20449;-69
2021/11/08 07:10:06;;;;;;;15.87;10.17;;;6.50;84.20;;;5.10;88.23;98512.47;5065678;28;20575;-71
2021/11/08 07:12:33;;;;;;;15.00;10.17;;;6.50;83.90;;;5.16;89.56;98520.81;5067599;28;20550;-71
2021/11/08 07:15:00;;;;;;;16.50;10.30;;;6.50;84.70;;;5.15;88.54;98527.19;5066440;28;20501;-73
2021/11/08 07:17:32;;;;;;;19.83;10.57;;;6.60;84.30;;;4.99;88.24;98474.44;5066056;28;20818;-72
2021/11/08 07:20:01;;;;;;;13.43;9.70;;;6.60;84.50;;;5.59;86.11;98526.81;5065697;28;20518;-72
2021/11/08 07:22:28;;;;;;;19.27;10.23;;;6.80;82.90;;;5.38;86.85;98530.03;5062664;28;20458;-74
2021/11/08 07:24:55;;;;;;;18.97;9.83;;;6.80;82.30;;;5.23;87.67;98529.84;5046910;28;20516;-74
2021/11/08 07:27:23;;;;;;;12.87;8.87;;;6.70;82.70;;;5.54;87.52;98534.53;5047538;28;20518;-73
2021/11/08 07:29:51;;;;;;;11.03;8.33;;;6.80;83.20;;;5.82;85.95;98537.63;5051082;28;20499;-74
2021/11/08 07:32:19;;;;;;;15.17;9.40;;;7.00;82.50;;;5.84;85.14;98534.81;5050055;28;20512;-73
2021/11/08 07:34:47;;;;;;;15.30;9.27;;;7.10;82.00;;;5.85;84.21;98508.81;5072026;28;20504;-73
2021/11/08 07:37:14;;;;;;;19.20;11.23;;;7.20;81.50;;;5.82;85.44;98528.75;5066414;28;20568;-72
2021/11/08 07:39:41;;;;;;;18.70;10.00;;;7.20;81.50;;;5.97;84.30;98523.50;5034905;28;20194;-73
2021/11/08 07:42:09;;;;;;;18.85;10.40;;;7.30;80.50;;;6.06;83.63;98537.75;5045844;28;20533;-72
2021/11/08 07:44:36;;;;;;;18.27;9.50;;;7.40;80.20;;;6.07;83.40;98536.75;5069363;28;20199;-73
2021/11/08 07:47:05;;;;;;;12.70;8.90;;;7.40;79.70;;;6.16;83.56;98541.09;5046724;28;20488;-73
2021/11/08 07:49:34;;;;;;;11.43;7.50;;;7.50;79.70;;;6.52;81.86;98537.88;5049653;28;20497;-73
2021/11/08 07:52:03;;;;;;;13.27;8.27;;;7.60;79.30;;;6.71;81.14;98540.28;5069280;28;21016;-72
2021/11/08 07:54:33;;;;;;;14.93;8.03;;;7.80;78.70;;;6.62;80.99;98542.19;5051795;28;20865;-73
2021/11/08 07:57:01;;;;;;;14.73;7.93;;;7.90;77.70;;;6.59;80.12;98537.16;5067326;28;20480;-73
2021/11/08 07:59:29;;;;;;;15.47;8.03;;;7.90;77.20;;;6.76;80.96;98549.50;5055127;28;20539;-73
2021/11/08 08:01:56;;;;;;;16.03;7.77;;;7.90;77.40;;;6.70;79.89;98522.50;5043327;28;20464;-74
2021/11/08 08:04:23;;;;;;;14.07;8.50;;;8.10;76.80;;;6.70;80.74;98550.19;5059644;28;20477;-72
2021/11/08 08:06:51;;;;;;;14.03;7.73;;;8.00;76.80;;;6.69;80.06;98532.41;5069137;28;20460;-73
2021/11/08 08:09:20;;;;;;;18.20;8.50;;;8.00;76.40;;;6.75;79.64;98537.09;5069718;28;20993;-73
2021/11/08 08:11:48;;;;;;;12.20;8.20;;;8.00;76.20;;;6.83;79.14;98536.19;5068847;28;20453;-73
2021/11/08 08:14:16;;;;;;;14.10;8.60;;;8.10;76.00;;;7.02;79.11;98542.91;5070666;28;20464;-73
2021/11/08 08:16:43;;;;;;;15.93;8.37;;;8.20;75.90;;;6.98;78.80;98533.56;5070855;28;20574;-74
2021/11/08 08:19:10;;;;;;;10.07;6.30;;;8.20;75.50;;;7.02;78.68;98540.22;5067515;28;20556;-72
2021/11/08 08:21:37;;;;;;;13.13;7.60;;;8.20;75.20;;;7.29;77.47;98538.00;5069707;28;20448;-73
2021/11/08 08:24:06;;;;;;;17.50;8.00;;;8.50;75.00;;;7.40;76.62;98544.78;5057293;28;20547;-73
2021/11/08 08:26:37;;;;;;;13.47;7.60;;;8.60;73.90;;;6.86;78.21;98537.66;5051553;28;20584;-73
2021/11/08 08:29:07;;;;;;;12.90;8.07;;;8.40;73.50;;;6.89;79.19;98537.31;5070821;28;20457;-74
2021/11/08 08:31:35;;;;;;;10.97;7.00;;;8.20;74.70;;;7.40;77.02;98552.84;5072098;28;20896;-73
2021/11/08 08:34:03;;;;;;;9.50;7.33;;;8.50;74.10;;;7.19;76.92;98521.28;5054296;28;20559;-74
2021/11/08 08:36:30;;;;;;;15.63;8.27;;;8.50;73.40;;;7.50;77.20;98548.06;5054549;28;20472;-73
2021/11/08 08:38:57;;;;;;;14.40;7.73;;;8.60;73.50;;;7.81;75.62;98546.25;5066993;28;20585;-72
2021/11/08 08:41:25;;;;;;;17.53;8.07;;;8.80;73.00;;;7.93;74.64;98539.38;5076171;28;20457;-74
2021/11/08 08:43:56;;;;;;;15.50;8.70;;;9.00;72.00;;;7.40;75.95;98538.59;5071771;28;20960;-72
2021/11/08 08:46:23;;;;;;;15.73;8.60;;;8.90;71.20;;;7.55;76.27;98552.06;5072190;28;20565;-73
2021/11/08 08:48:53;;;;;;;14.60;8.00;;;8.80;72.10;;;7.53;75.86;98538.81;5053543;28;20974;-74
2021/11/08 08:51:21;;;;;;;17.00;9.83;;;8.90;71.40;;;7.63;75.24;98533.97;5054790;28;20522;-73
2021/11/08 08:53:49;;;;;;;11.90;7.53;;;8.80;71.40;;;7.40;75.99;98538.59;5051716;28;20461;-72
2021/11/08 08:56:18;;;;;;;13.10;8.60;;;8.70;71.40;;;7.46;76.10;98548.59;5066362;28;20504;-72
2021/11/08 08:58:45;;;;;;;11.70;7.53;;;8.70;71.70;;;7.28;75.67;98546.22;5065354;28;20484;-73
2021/11/08 09:01:14;;;;;;;12.73;7.93;;;8.60;71.20;;;7.35;75.89;98534.59;5051613;28;20569;-73
2021/11/08 09:03:41;;;;;;;19.33;8.67;;;8.60;71.30;;;7.32;76.25;98548.38;5049595;28;20465;-69
2021/11/08 09:06:08;;;;;;;19.27;8.83;;;8.70;71.10;;;7.64;76.38;98546.41;5063643;28;20535;-68
2021/11/08 09:08:38;;;;;;;13.50;7.93;;;8.80;72.00;;;7.74;74.18;98548.84;5066009;28;20559;-72
2021/11/08 09:11:05;;;;;;;14.27;8.47;;;8.90;70.30;;;7.93;73.77;98549.31;5046269;28;20636;-71
2021/11/08 09:13:32;;;;;;;16.10;8.60;;;9.10;70.30;;;7.99;73.93;98558.50;5070150;28;20507;-71
2021/11/08 09:15:59;;;;;;;19.60;8.70;;;9.10;69.90;;;8.53;72.61;98554.69;5052470;28;20518;-71
2021/11/08 09:18:27;;;;;;;14.10;6.90;;;9.60;69.90;;;8.16;71.07;98527.69;5056320;28;20528;-72
2021/11/08 09:20:54;;;;;;;11.10;7.13;;;9.70;67.60;;;8.03;73.04;98560.63;5060516;28;20556;-72
2021/11/08 09:23:21;;;;;;;17.23;7.33;;;9.40;68.20;;;8.13;72.79;98570.28;5068026;28;20500;-71
2021/11/08 09:25:49;;;;;;;12.23;7.20;;;9.40;68.60;;;7.99;73.18;98566.59;5045625;28;20461;-71
2021/11/08 09:28:17;;;;;;;11.70;7.40;;;9.30;68.70;;;8.16;72.98;98565.38;5048099;28;20496;-73
2021/11/08 09:30:45;;;;;;;12.90;7.53;;;9.40;68.60;;;8.41;71.65;98561.53;5056751;28;20460;-72
2021/11/08 09:33:14;;;;;;;15.30;7.40;;;9.60;68.60;;;8.27;71.66;98576.69;5066065;28;20499;-71
2021/11/08 09:35:48;;;;;;;15.00;8.23;;;9.50;67.70;;;8.07;72.53;98582.63;5067578;28;20471;-72
2021/11/08 09:38:16;;;;;;;14.97;7.50;;;9.40;67.80;;;8.23;72.42;98592.38;5067501;28;20459;-72
2021/11/08 09:40:45;;;;;;;16.37;8.73;;;9.50;68.10;;;7.93;73.78;98576.22;5048866;28;20457;-72
2021/11/08 09:43:15;;;;;;;12.90;8.47;;;9.30;68.40;;;7.82;73.84;98565.91;5046848;28;20548;-70
2021/11/08 09:45:44;;;;;;;15.67;7.80;;;9.20;68.50;;;7.75;75.06;98588.19;5063888;28;20456;-72
2021/11/08 09:48:12;;;;;;;17.60;7.70;;;9.10;68.90;;;8.20;72.64;98585.50;5069064;28;20530;-72
2021/11/08 09:50:43;;;;;;;10.70;7.67;;;9.30;68.60;;;8.29;73.38;98585.41;5070304;28;20496;-71
2021/11/08 09:53:11;;;;;;;15.80;8.37;;;9.40;68.80;;;8.39;71.25;98590.50;5059338;28;20672;-71
2021/11/08 09:55:40;;;;;;;17.77;8.00;;;9.60;67.40;;;8.68;70.26;98595.03;5067623;28;20487;-72
2021/11/08 09:58:07;;;;;;;14.90;8.80;;;9.80;67.10;;;8.54;71.06;98590.50;5069271;28;20465;-72
2021/11/08 10:00:50;;;;;;;22.40;9.13;;;9.80;66.80;;;8.50;71.77;98596.28;5050432;28;20554;-71
2021/11/08 10:03:23;;;;;;;17.83;8.30;;;9.80;66.90;;;8.14;71.44;98553.97;5071545;28;20457;-72
2021/11/08 10:05:55;;;;;;;14.33;9.00;;;9.70;66.30;;;8.17;71.84;98585.03;5068744;28;20441;-73
2021/11/08 10:08:29;;;;;;;12.83;8.70;;;9.40;67.10;;;8.26;71.98;98588.47;5048272;28;20494;-72
2021/11/08 10:10:58;;;;;;;16.57;8.33;;;9.50;67.00;;;8.31;71.64;98584.19;5068033;28;20850;-72
2021/11/08 10:13:30;;;;;;;11.63;8.03;;;9.60;67.10;;;8.45;70.42;98585.22;5064159;28;20454;-72
2021/11/08 10:16:00;;;;;;;12.33;8.30;;;9.70;66.60;;;8.57;70.47;98582.06;5047812;28;20469;-72
2021/11/08 10:18:27;;;;;;;16.07;8.47;;;9.80;66.10;;;8.35;70.87;98582.81;5067677;28;20514;-72
2021/11/08 10:21:07;;;;;;;12.97;8.67;;;9.70;66.20;;;8.66;70.13;98580.94;5048201;28;20461;-72
2021/11/08 10:23:38;;;;;;;17.40;8.40;;;9.80;66.10;;;8.79;69.88;98586.47;5066759;28;20544;-72
2021/11/08 10:26:12;;;;;;;17.23;8.40;;;9.90;65.80;;;8.57;70.20;98590.13;5067637;28;20510;-71
2021/11/08 10:28:40;;;;;;;24.63;9.27;;;9.80;65.70;;;8.47;70.12;98576.94;5064119;28;20481;-72
2021/11/08 10:31:11;;;;;;;16.00;8.60;;;9.80;65.60;;;8.77;69.64;98576.91;5062867;28;20955;-74
2021/11/08 10:33:42;;;;;;;20.03;9.50;;;9.90;65.70;;;8.97;69.55;98585.22;5069462;28;20458;-72
2021/11/08 10:36:16;;;;;;;14.30;8.90;;;10.10;64.50;;;9.43;67.92;98585.84;5068867;28;21061;-71
2021/11/08 10:38:45;;;;;;;12.33;8.70;;;10.50;64.20;;;9.19;68.95;98587.94;5065150;28;20831;-72
2021/11/08 10:41:16;;;;;;;15.37;9.47;;;10.40;63.80;;;9.20;68.47;98597.69;5065221;28;20464;-73
2021/11/08 10:43:47;;;;;;;14.30;9.10;;;10.30;64.00;;;9.14;69.14;98588.50;5071282;28;20547;-72
2021/11/08 10:46:17;;;;;;;13.33;8.90;;;10.40;64.00;;;8.67;69.80;98581.78;5051100;28;20530;-71
2021/11/08 10:48:47;;;;;;;17.10;8.47;;;10.10;64.00;;;8.76;70.52;98597.63;5059801;28;20481;-72
2021/11/08 10:51:25;;;;;;;13.63;7.20;;;10.10;64.30;;;9.05;69.18;98598.56;5049956;28;20996;-73
2021/11/08 10:53:56;;;;;;;13.20;7.90;;;10.20;63.70;;;9.06;68.51;98594.84;5064870;28;20524;-72
2021/11/08 10:56:28;;;;;;;19.30;8.30;;;10.30;63.40;;;9.05;68.14;98595.03;5072889;28;20504;-72
2021/11/08 10:58:58;;;;;;;14.03;7.97;;;10.30;63.20;;;9.21;67.67;98599.34;5064777;28;20859;-72
2021/11/08 11:01:31;;;;;;;22.77;8.10;;;10.40;63.20;;;9.41;67.00;98598.69;5044884;28;20893;-72
2021/11/08 11:04:02;;;;;;;8.73;7.40;;;10.50;63.00;;;9.39;65.71;98611.53;5066218;28;20446;-72
2021/11/08 11:06:42;;;;;;;12.60;6.60;;;10.50;61.70;;;8.91;68.09;98596.75;5047351;28;20550;-72
2021/11/08 11:09:14;;;;;;;11.70;6.50;;;10.40;62.00;;;8.78;68.78;98600.97;5069112;28;20469;-72
2021/11/08 11:11:41;;;;;;;17.83;7.20;;;10.20;62.50;;;8.87;68.64;98603.53;5070814;28;20559;-72
2021/11/08 11:14:08;;;;;;;13.07;7.53;;;10.20;62.50;;;9.03;67.85;98603.31;5079131;28;20456;-71
2021/11/08 11:16:40;;;;;;;11.77;7.10;;;10.30;62.20;;;8.93;68.02;98605.50;5047297;28;20476;-71
2021/11/08 11:19:11;;;;;;;10.13;6.60;;;10.30;62.20;;;9.16;67.08;98599.06;5044804;28;20542;-71
2021/11/08 11:21:52;;;;;;;14.63;6.80;;;10.40;62.20;;;9.25;67.15;98600.63;5067597;28;20546;-70
2021/11/08 11:24:32;;;;;;;14.27;7.17;;;10.50;62.40;;;9.05;66.62;98595.88;5047447;28;20461;-72
2021/11/08 11:27:00;;;;;;;14.13;6.78;;;10.50;61.60;;;9.30;66.69;98603.56;5060233;28;20560;-72
2021/11/08 11:29:30;;;;;;;9.17;6.53;;;10.50;61.50;;;8.92;65.71;98571.47;5063488;28;20206;-71
2021/11/08 11:31:57;;;;;;;11.07;5.00;;;10.30;60.50;;;9.04;64.38;98591.53;5066732;28;20503;-71
2021/11/08 11:34:24;;;;;;;9.40;5.73;;;10.30;59.30;;;8.83;65.14;98586.09;5063750;28;21675;-72
2021/11/08 11:36:53;;;;;;;7.07;5.00;;;10.30;59.10;;;8.81;65.88;98580.06;5065743;28;20504;-71
2021/11/08 11:39:22;;;;;;;7.77;5.00;;;10.20;59.50;;;8.74;66.26;98580.81;5067195;28;20545;-72
2021/11/08 11:41:50;;;;;;;10.23;5.57;;;10.10;60.00;;;8.64;66.85;98581.13;5065119;28;20465;-73
2021/11/08 11:44:22;;;;;;;9.90;6.07;;;10.00;60.10;;;8.64;67.44;98582.97;5064251;28;20493;-72
2021/11/08 11:46:52;;;;;;;11.87;5.27;;;9.90;61.80;;;9.02;64.48;98580.09;5073025;28;20542;-73
2021/11/08 11:49:20;;;;;;;11.33;5.03;;;10.20;59.70;;;9.31;63.81;98574.75;5063904;28;20549;-72
2021/11/08 11:51:53;;;;;;;10.10;5.20;;;10.40;59.30;;;9.11;63.69;98579.97;5050268;28;20489;-72
2021/11/08 11:54:24;;;;;;;8.93;4.43;;;10.40;58.80;;;9.05;63.24;98581.56;5066087;28;20605;-72
2021/11/08 11:56:54;;;;;;;12.77;5.77;;;10.30;58.30;;;9.19;64.08;98590.63;5066630;28;20552;-72
2021/11/08 11:59:22;;;;;;;9.77;4.80;;;10.30;59.00;;;9.02;62.80;98585.50;5068282;28;20473;-72
2021/11/08 12:01:50;;;;;;;13.73;5.63;;;10.30;57.80;;;8.84;64.59;98580.53;5063022;28;21808;-72